sensor_id;sensor_type;location;lat;lon;timestamp;P1;durP1;ratioP1;P2;durP2;ratioP2
51764;SDS011;37835;53.256;6.456;2022-12-16T00:01:10;47.80;;;26.83;;
51764;SDS011;37835;53.256;6.456;2022-12-16T00:03:38;47.50;;;27.50;;
51764;SDS011;37835;53.256;6.456;2022-12-16T00:06:04;41.83;;;27.17;;
51764;SDS011;37835;53.256;6.456;2022-12-16T00:08:32;36.13;;;23.10;;
51764;SDS011;37835;53.256;6.456;2022-12-16T00:10:59;39.33;;;20.87;;
51764;SDS011;37835;53.256;6.456;2022-12-16T00:13:26;32.43;;;18.87;;
51764;SDS011;37835;53.256;6.456;2022-12-16T00:15:52;31.57;;;14.60;;
51764;SDS011;37835;53.256;6.456;2022-12-16T00:18:18;27.70;;;12.73;;
51764;SDS011;37835;53.256;6.456;2022-12-16T00:20:45;21.17;;;12.13;;
51764;SDS011;37835;53.256;6.456;2022-12-16T00:23:11;23.23;;;11.03;;
51764;SDS011;37835;53.256;6.456;2022-12-16T00:25:37;19.17;;;9.93;;
51764;SDS011;37835;53.256;6.456;2022-12-16T00:28:02;19.27;;;8.80;;
51764;SDS011;37835;53.256;6.456;2022-12-16T00:30:28;12.87;;;7.57;;
51764;SDS011;37835;53.256;6.456;2022-12-16T00:32:53;13.33;;;6.73;;
51764;SDS011;37835;53.256;6.456;2022-12-16T00:35:19;11.00;;;6.37;;
51764;SDS011;37835;53.256;6.456;2022-12-16T00:37:47;16.97;;;6.80;;
51764;SDS011;37835;53.256;6.456;2022-12-16T00:40:13;12.57;;;6.27;;
51764;SDS011;37835;53.256;6.456;2022-12-16T00:42:38;14.13;;;6.13;;
51764;SDS011;37835;53.256;6.456;2022-12-16T00:45:04;12.87;;;6.33;;
51764;SDS011;37835;53.256;6.456;2022-12-16T00:47:30;15.13;;;6.97;;
51764;SDS011;37835;53.256;6.456;2022-12-16T00:49:55;10.20;;;5.93;;
51764;SDS011;37835;53.256;6.456;2022-12-16T00:52:21;12.03;;;6.80;;
51764;SDS011;37835;53.256;6.456;2022-12-16T00:54:46;13.57;;;6.53;;
51764;SDS011;37835;53.256;6.456;2022-12-16T00:57:12;17.60;;;7.17;;
51764;SDS011;37835;53.256;6.456;2022-12-16T00:59:37;13.17;;;6.37;;
51764;SDS011;37835;53.256;6.456;2022-12-16T01:02:03;14.10;;;7.03;;
51764;SDS011;37835;53.256;6.456;2022-12-16T01:04:29;8.80;;;6.03;;
51764;SDS011;37835;53.256;6.456;2022-12-16T01:06:54;13.73;;;5.83;;
51764;SDS011;37835;53.256;6.456;2022-12-16T01:09:20;10.67;;;5.67;;
51764;SDS011;37835;53.256;6.456;2022-12-16T01:11:46;9.47;;;6.77;;
51764;SDS011;37835;53.256;6.456;2022-12-16T01:14:11;11.47;;;5.70;;
51764;SDS011;37835;53.256;6.456;2022-12-16T01:16:37;12.27;;;6.00;;
51764;SDS011;37835;53.256;6.456;2022-12-16T01:19:03;10.73;;;5.93;;
51764;SDS011;37835;53.256;6.456;2022-12-16T01:21:28;14.60;;;6.43;;
51764;SDS011;37835;53.256;6.456;2022-12-16T01:23:54;15.03;;;6.90;;
51764;SDS011;37835;53.256;6.456;2022-12-16T01:26:20;9.53;;;6.27;;
51764;SDS011;37835;53.256;6.456;2022-12-16T01:28:49;11.83;;;5.90;;
51764;SDS011;37835;53.256;6.456;2022-12-16T01:31:15;14.27;;;6.97;;
51764;SDS011;37835;53.256;6.456;2022-12-16T01:33:42;10.07;;;6.00;;
51764;SDS011;37835;53.256;6.456;2022-12-16T01:36:08;9.30;;;6.43;;
51764;SDS011;37835;53.256;6.456;2022-12-16T01:38:34;12.43;;;6.70;;
51764;SDS011;37835;53.256;6.456;2022-12-16T01:41:00;9.90;;;6.67;;
51764;SDS011;37835;53.256;6.456;2022-12-16T01:43:28;10.53;;;6.23;;
51764;SDS011;37835;53.256;6.456;2022-12-16T01:51:06;9.73;;;7.00;;
51764;SDS011;37835;53.256;6.456;2022-12-16T01:53:54;11.40;;;6.93;;
51764;SDS011;37835;53.256;6.456;2022-12-16T01:56:22;13.63;;;7.03;;
51764;SDS011;37835;53.256;6.456;2022-12-16T01:58:52;11.80;;;6.13;;
51764;SDS011;37835;53.256;6.456;2022-12-16T02:01:19;10.23;;;5.80;;
51764;SDS011;37835;53.256;6.456;2022-12-16T02:03:45;12.57;;;6.27;;
51764;SDS011;37835;53.256;6.456;2022-12-16T02:06:13;9.33;;;5.93;;
51764;SDS011;37835;53.256;6.456;2022-12-16T02:08:38;10.77;;;6.77;;
51764;SDS011;37835;53.256;6.456;2022-12-16T02:11:13;13.73;;;6.97;;
51764;SDS011;37835;53.256;6.456;2022-12-16T02:16:38;10.73;;;6.90;;
51764;SDS011;37835;53.256;6.456;2022-12-16T02:27:39;12.60;;;7.43;;
51764;SDS011;37835;53.256;6.456;2022-12-16T02:33:33;12.67;;;6.80;;
51764;SDS011;37835;53.256;6.456;2022-12-16T02:39:04;16.43;;;7.13;;
51764;SDS011;37835;53.256;6.456;2022-12-16T02:41:54;10.43;;;6.90;;
51764;SDS011;37835;53.256;6.456;2022-12-16T02:44:21;12.47;;;6.73;;
51764;SDS011;37835;53.256;6.456;2022-12-16T02:46:56;13.37;;;5.90;;
51764;SDS011;37835;53.256;6.456;2022-12-16T02:51:47;12.20;;;5.90;;
51764;SDS011;37835;53.256;6.456;2022-12-16T02:54:13;8.87;;;5.93;;
51764;SDS011;37835;53.256;6.456;2022-12-16T02:56:48;12.40;;;5.87;;
51764;SDS011;37835;53.256;6.456;2022-12-16T03:02:31;13.20;;;5.50;;
51764;SDS011;37835;53.256;6.456;2022-12-16T03:05:10;8.17;;;5.63;;
51764;SDS011;37835;53.256;6.456;2022-12-16T03:07:43;8.63;;;5.37;;
51764;SDS011;37835;53.256;6.456;2022-12-16T03:10:11;9.30;;;5.60;;
51764;SDS011;37835;53.256;6.456;2022-12-16T03:12:40;10.57;;;5.60;;
51764;SDS011;37835;53.256;6.456;2022-12-16T03:15:09;14.07;;;6.13;;
51764;SDS011;37835;53.256;6.456;2022-12-16T03:17:39;12.73;;;6.30;;
51764;SDS011;37835;53.256;6.456;2022-12-16T03:22:36;10.30;;;7.25;;
51764;SDS011;37835;53.256;6.456;2022-12-16T03:25:05;18.23;;;7.73;;
51764;SDS011;37835;53.256;6.456;2022-12-16T03:27:34;11.27;;;8.10;;
51764;SDS011;37835;53.256;6.456;2022-12-16T03:30:15;21.80;;;11.47;;
51764;SDS011;37835;53.256;6.456;2022-12-16T03:35:35;22.23;;;14.90;;
51764;SDS011;37835;53.256;6.456;2022-12-16T03:38:04;25.17;;;16.67;;
51764;SDS011;37835;53.256;6.456;2022-12-16T03:40:32;26.00;;;17.93;;
51764;SDS011;37835;53.256;6.456;2022-12-16T03:42:59;26.37;;;19.70;;
51764;SDS011;37835;53.256;6.456;2022-12-16T03:45:27;29.87;;;19.97;;
51764;SDS011;37835;53.256;6.456;2022-12-16T03:47:57;37.50;;;21.70;;
51764;SDS011;37835;53.256;6.456;2022-12-16T03:50:28;38.60;;;24.70;;
51764;SDS011;37835;53.256;6.456;2022-12-16T03:52:55;40.05;;;24.45;;
51764;SDS011;37835;53.256;6.456;2022-12-16T03:55:21;43.10;;;27.43;;
51764;SDS011;37835;53.256;6.456;2022-12-16T03:57:47;46.83;;;28.20;;
51764;SDS011;37835;53.256;6.456;2022-12-16T04:00:13;54.23;;;30.60;;
51764;SDS011;37835;53.256;6.456;2022-12-16T04:02:39;57.03;;;31.80;;
51764;SDS011;37835;53.256;6.456;2022-12-16T04:05:05;61.50;;;34.77;;
51764;SDS011;37835;53.256;6.456;2022-12-16T04:07:31;62.13;;;35.97;;
51764;SDS011;37835;53.256;6.456;2022-12-16T04:09:56;61.67;;;37.33;;
51764;SDS011;37835;53.256;6.456;2022-12-16T04:12:22;66.90;;;37.37;;
51764;SDS011;37835;53.256;6.456;2022-12-16T04:15:06;61.50;;;36.77;;
51764;SDS011;37835;53.256;6.456;2022-12-16T04:17:51;62.87;;;36.77;;
51764;SDS011;37835;53.256;6.456;2022-12-16T04:20:36;63.23;;;36.10;;
51764;SDS011;37835;53.256;6.456;2022-12-16T04:23:33;60.70;;;34.57;;
51764;SDS011;37835;53.256;6.456;2022-12-16T04:26:19;66.80;;;37.07;;
51764;SDS011;37835;53.256;6.456;2022-12-16T04:28:46;68.77;;;36.40;;
51764;SDS011;37835;53.256;6.456;2022-12-16T04:31:12;73.03;;;37.33;;
51764;SDS011;37835;53.256;6.456;2022-12-16T04:33:37;66.10;;;34.97;;
51764;SDS011;37835;53.256;6.456;2022-12-16T04:36:23;69.67;;;37.67;;
51764;SDS011;37835;53.256;6.456;2022-12-16T04:39:07;65.03;;;35.10;;
51764;SDS011;37835;53.256;6.456;2022-12-16T04:41:54;62.83;;;34.03;;
51764;SDS011;37835;53.256;6.456;2022-12-16T04:44:38;59.70;;;33.43;;
51764;SDS011;37835;53.256;6.456;2022-12-16T04:47:23;62.67;;;33.13;;
51764;SDS011;37835;53.256;6.456;2022-12-16T04:50:07;61.53;;;32.27;;
51764;SDS011;37835;53.256;6.456;2022-12-16T04:52:51;59.37;;;32.10;;
51764;SDS011;37835;53.256;6.456;2022-12-16T04:55:40;58.17;;;31.73;;
51764;SDS011;37835;53.256;6.456;2022-12-16T04:58:25;56.33;;;31.87;;
51764;SDS011;37835;53.256;6.456;2022-12-16T05:01:09;55.20;;;31.10;;
51764;SDS011;37835;53.256;6.456;2022-12-16T05:03:54;56.43;;;32.17;;
51764;SDS011;37835;53.256;6.456;2022-12-16T05:06:38;55.93;;;32.27;;
51764;SDS011;37835;53.256;6.456;2022-12-16T05:09:22;59.37;;;32.80;;
51764;SDS011;37835;53.256;6.456;2022-12-16T05:12:06;62.40;;;34.50;;
51764;SDS011;37835;53.256;6.456;2022-12-16T05:14:51;56.90;;;33.07;;
51764;SDS011;37835;53.256;6.456;2022-12-16T05:17:35;60.53;;;34.40;;
51764;SDS011;37835;53.256;6.456;2022-12-16T05:20:36;64.73;;;35.67;;
51764;SDS011;37835;53.256;6.456;2022-12-16T05:23:20;61.93;;;34.33;;
51764;SDS011;37835;53.256;6.456;2022-12-16T05:26:05;66.87;;;35.27;;
51764;SDS011;37835;53.256;6.456;2022-12-16T05:28:49;67.77;;;35.70;;
51764;SDS011;37835;53.256;6.456;2022-12-16T05:31:33;71.17;;;38.13;;
51764;SDS011;37835;53.256;6.456;2022-12-16T05:34:17;69.23;;;37.80;;
51764;SDS011;37835;53.256;6.456;2022-12-16T05:37:02;70.83;;;37.67;;
51764;SDS011;37835;53.256;6.456;2022-12-16T05:39:46;75.33;;;38.37;;
51764;SDS011;37835;53.256;6.456;2022-12-16T05:42:30;74.00;;;39.53;;
51764;SDS011;37835;53.256;6.456;2022-12-16T05:45:15;70.73;;;38.20;;
51764;SDS011;37835;53.256;6.456;2022-12-16T05:47:59;73.57;;;39.17;;
51764;SDS011;37835;53.256;6.456;2022-12-16T05:50:43;69.00;;;38.63;;
51764;SDS011;37835;53.256;6.456;2022-12-16T05:53:28;72.60;;;39.70;;
51764;SDS011;37835;53.256;6.456;2022-12-16T05:56:12;71.87;;;39.87;;
51764;SDS011;37835;53.256;6.456;2022-12-16T05:58:57;66.33;;;37.60;;
51764;SDS011;37835;53.256;6.456;2022-12-16T06:01:41;69.93;;;38.33;;
51764;SDS011;37835;53.256;6.456;2022-12-16T06:04:26;75.17;;;39.60;;
51764;SDS011;37835;53.256;6.456;2022-12-16T06:07:10;74.23;;;40.40;;
51764;SDS011;37835;53.256;6.456;2022-12-16T06:09:54;70.67;;;39.50;;
51764;SDS011;37835;53.256;6.456;2022-12-16T06:12:39;67.47;;;38.97;;
51764;SDS011;37835;53.256;6.456;2022-12-16T06:15:23;66.17;;;38.80;;
51764;SDS011;37835;53.256;6.456;2022-12-16T06:18:07;66.60;;;37.60;;
51764;SDS011;37835;53.256;6.456;2022-12-16T06:20:51;65.80;;;37.47;;
51764;SDS011;37835;53.256;6.456;2022-12-16T06:23:36;64.53;;;37.77;;
51764;SDS011;37835;53.256;6.456;2022-12-16T06:26:20;66.93;;;38.43;;
51764;SDS011;37835;53.256;6.456;2022-12-16T06:29:06;63.53;;;37.97;;
51764;SDS011;37835;53.256;6.456;2022-12-16T06:31:51;65.40;;;38.83;;
51764;SDS011;37835;53.256;6.456;2022-12-16T06:34:35;62.57;;;37.53;;
51764;SDS011;37835;53.256;6.456;2022-12-16T06:37:20;67.17;;;37.93;;
51764;SDS011;37835;53.256;6.456;2022-12-16T06:40:04;68.37;;;39.40;;
51764;SDS011;37835;53.256;6.456;2022-12-16T06:42:49;66.50;;;38.43;;
51764;SDS011;37835;53.256;6.456;2022-12-16T06:45:33;62.03;;;38.20;;
51764;SDS011;37835;53.256;6.456;2022-12-16T06:48:18;65.70;;;37.97;;
51764;SDS011;37835;53.256;6.456;2022-12-16T06:51:02;67.00;;;39.27;;
51764;SDS011;37835;53.256;6.456;2022-12-16T06:53:46;65.40;;;38.20;;
51764;SDS011;37835;53.256;6.456;2022-12-16T06:56:31;69.40;;;39.40;;
51764;SDS011;37835;53.256;6.456;2022-12-16T06:59:15;67.33;;;38.43;;
51764;SDS011;37835;53.256;6.456;2022-12-16T07:01:59;64.93;;;39.93;;
51764;SDS011;37835;53.256;6.456;2022-12-16T07:04:44;65.40;;;38.77;;
51764;SDS011;37835;53.256;6.456;2022-12-16T07:07:28;66.27;;;39.67;;
51764;SDS011;37835;53.256;6.456;2022-12-16T07:10:12;68.37;;;39.07;;
51764;SDS011;37835;53.256;6.456;2022-12-16T07:12:58;71.20;;;40.63;;
51764;SDS011;37835;53.256;6.456;2022-12-16T07:15:44;75.63;;;40.40;;
51764;SDS011;37835;53.256;6.456;2022-12-16T07:18:28;71.40;;;41.23;;
51764;SDS011;37835;53.256;6.456;2022-12-16T07:21:12;70.80;;;40.13;;
51764;SDS011;37835;53.256;6.456;2022-12-16T07:23:57;67.97;;;39.70;;
51764;SDS011;37835;53.256;6.456;2022-12-16T07:26:41;67.93;;;38.80;;
51764;SDS011;37835;53.256;6.456;2022-12-16T07:29:26;69.90;;;40.87;;
51764;SDS011;37835;53.256;6.456;2022-12-16T07:32:10;71.40;;;41.37;;
51764;SDS011;37835;53.256;6.456;2022-12-16T07:34:54;69.63;;;40.70;;
51764;SDS011;37835;53.256;6.456;2022-12-16T07:37:38;70.17;;;40.53;;
51764;SDS011;37835;53.256;6.456;2022-12-16T07:40:23;78.00;;;41.67;;
51764;SDS011;37835;53.256;6.456;2022-12-16T07:43:27;69.73;;;40.20;;
51764;SDS011;37835;53.256;6.456;2022-12-16T07:46:11;71.20;;;40.33;;
51764;SDS011;37835;53.256;6.456;2022-12-16T07:48:55;74.87;;;41.63;;
51764;SDS011;37835;53.256;6.456;2022-12-16T07:51:40;76.93;;;41.43;;
51764;SDS011;37835;53.256;6.456;2022-12-16T07:54:24;67.77;;;40.27;;
51764;SDS011;37835;53.256;6.456;2022-12-16T07:57:08;79.33;;;42.30;;
51764;SDS011;37835;53.256;6.456;2022-12-16T07:59:53;71.77;;;40.90;;
51764;SDS011;37835;53.256;6.456;2022-12-16T08:02:37;75.53;;;41.87;;
51764;SDS011;37835;53.256;6.456;2022-12-16T08:05:22;75.40;;;40.63;;
51764;SDS011;37835;53.256;6.456;2022-12-16T08:08:06;68.53;;;40.03;;
51764;SDS011;37835;53.256;6.456;2022-12-16T08:10:50;74.27;;;41.73;;
51764;SDS011;37835;53.256;6.456;2022-12-16T08:13:35;72.70;;;41.03;;
51764;SDS011;37835;53.256;6.456;2022-12-16T08:16:19;70.33;;;41.57;;
51764;SDS011;37835;53.256;6.456;2022-12-16T08:19:03;69.03;;;40.47;;
51764;SDS011;37835;53.256;6.456;2022-12-16T08:21:48;74.47;;;41.93;;
51764;SDS011;37835;53.256;6.456;2022-12-16T08:24:32;72.87;;;41.53;;
51764;SDS011;37835;53.256;6.456;2022-12-16T08:27:16;73.07;;;42.30;;
51764;SDS011;37835;53.256;6.456;2022-12-16T08:30:00;71.53;;;42.07;;
51764;SDS011;37835;53.256;6.456;2022-12-16T08:32:45;73.97;;;41.20;;
51764;SDS011;37835;53.256;6.456;2022-12-16T08:35:29;75.07;;;42.90;;
51764;SDS011;37835;53.256;6.456;2022-12-16T08:38:14;75.20;;;42.63;;
51764;SDS011;37835;53.256;6.456;2022-12-16T08:40:58;70.87;;;41.73;;
51764;SDS011;37835;53.256;6.456;2022-12-16T08:43:43;77.17;;;42.93;;
51764;SDS011;37835;53.256;6.456;2022-12-16T08:46:27;70.37;;;41.53;;
51764;SDS011;37835;53.256;6.456;2022-12-16T08:49:11;70.00;;;42.17;;
51764;SDS011;37835;53.256;6.456;2022-12-16T08:51:56;74.87;;;44.73;;
51764;SDS011;37835;53.256;6.456;2022-12-16T08:54:40;75.00;;;43.33;;
51764;SDS011;37835;53.256;6.456;2022-12-16T08:57:24;73.60;;;43.27;;
51764;SDS011;37835;53.256;6.456;2022-12-16T09:00:09;69.77;;;41.90;;
51764;SDS011;37835;53.256;6.456;2022-12-16T09:02:54;73.83;;;42.73;;
51764;SDS011;37835;53.256;6.456;2022-12-16T09:05:39;74.40;;;42.93;;
51764;SDS011;37835;53.256;6.456;2022-12-16T09:08:23;72.17;;;42.03;;
51764;SDS011;37835;53.256;6.456;2022-12-16T09:11:08;72.77;;;42.87;;
51764;SDS011;37835;53.256;6.456;2022-12-16T09:13:52;76.50;;;43.23;;
51764;SDS011;37835;53.256;6.456;2022-12-16T09:16:36;74.27;;;43.77;;
51764;SDS011;37835;53.256;6.456;2022-12-16T09:19:20;81.60;;;44.70;;
51764;SDS011;37835;53.256;6.456;2022-12-16T09:22:05;75.37;;;43.93;;
51764;SDS011;37835;53.256;6.456;2022-12-16T09:24:49;71.60;;;43.77;;
51764;SDS011;37835;53.256;6.456;2022-12-16T09:27:33;76.47;;;44.97;;
51764;SDS011;37835;53.256;6.456;2022-12-16T09:30:17;78.77;;;45.00;;
51764;SDS011;37835;53.256;6.456;2022-12-16T09:33:02;78.10;;;43.80;;
51764;SDS011;37835;53.256;6.456;2022-12-16T09:35:46;81.00;;;45.60;;
51764;SDS011;37835;53.256;6.456;2022-12-16T09:38:30;80.30;;;45.00;;
51764;SDS011;37835;53.256;6.456;2022-12-16T09:47:53;77.90;;;44.23;;
51764;SDS011;37835;53.256;6.456;2022-12-16T09:51:04;77.90;;;44.13;;
51764;SDS011;37835;53.256;6.456;2022-12-16T09:53:50;78.50;;;44.87;;
51764;SDS011;37835;53.256;6.456;2022-12-16T09:56:36;81.57;;;44.80;;
51764;SDS011;37835;53.256;6.456;2022-12-16T09:59:30;79.70;;;47.17;;
51764;SDS011;37835;53.256;6.456;2022-12-16T10:02:18;77.10;;;44.07;;
51764;SDS011;37835;53.256;6.456;2022-12-16T10:05:05;79.43;;;44.87;;
51764;SDS011;37835;53.256;6.456;2022-12-16T10:11:08;75.07;;;43.87;;
51764;SDS011;37835;53.256;6.456;2022-12-16T10:14:05;85.83;;;47.40;;
51764;SDS011;37835;53.256;6.456;2022-12-16T10:17:11;77.63;;;44.70;;
51764;SDS011;37835;53.256;6.456;2022-12-16T10:23:55;86.10;;;46.55;;
51764;SDS011;37835;53.256;6.456;2022-12-16T10:29:53;77.13;;;44.60;;
51764;SDS011;37835;53.256;6.456;2022-12-16T10:32:45;85.03;;;46.13;;
51764;SDS011;37835;53.256;6.456;2022-12-16T10:35:50;84.53;;;45.37;;
51764;SDS011;37835;53.256;6.456;2022-12-16T10:41:39;85.87;;;48.77;;
51764;SDS011;37835;53.256;6.456;2022-12-16T10:47:42;89.50;;;46.73;;
51764;SDS011;37835;53.256;6.456;2022-12-16T10:50:27;88.63;;;49.47;;
51764;SDS011;37835;53.256;6.456;2022-12-16T10:55:59;93.10;;;50.00;;
51764;SDS011;37835;53.256;6.456;2022-12-16T10:59:06;85.83;;;48.87;;
51764;SDS011;37835;53.256;6.456;2022-12-16T11:02:04;90.40;;;48.70;;
51764;SDS011;37835;53.256;6.456;2022-12-16T11:05:05;79.57;;;48.07;;
51764;SDS011;37835;53.256;6.456;2022-12-16T11:10:38;90.13;;;50.17;;
51764;SDS011;37835;53.256;6.456;2022-12-16T11:13:31;91.33;;;49.43;;
51764;SDS011;37835;53.256;6.456;2022-12-16T11:19:04;84.33;;;45.87;;
51764;SDS011;37835;53.256;6.456;2022-12-16T11:22:18;81.33;;;45.83;;
51764;SDS011;37835;53.256;6.456;2022-12-16T11:25:19;80.20;;;44.50;;
51764;SDS011;37835;53.256;6.456;2022-12-16T11:28:05;82.50;;;45.97;;
51764;SDS011;37835;53.256;6.456;2022-12-16T11:30:59;83.97;;;46.80;;
51764;SDS011;37835;53.256;6.456;2022-12-16T11:33:50;84.32;;;47.53;;
51764;SDS011;37835;53.256;6.456;2022-12-16T11:36:36;82.90;;;47.10;;
51764;SDS011;37835;53.256;6.456;2022-12-16T11:39:23;85.07;;;46.77;;
51764;SDS011;37835;53.256;6.456;2022-12-16T11:42:13;82.27;;;46.00;;
51764;SDS011;37835;53.256;6.456;2022-12-16T11:45:13;79.70;;;46.87;;
51764;SDS011;37835;53.256;6.456;2022-12-16T11:48:02;80.88;;;45.92;;
51764;SDS011;37835;53.256;6.456;2022-12-16T11:51:07;82.10;;;46.40;;
51764;SDS011;37835;53.256;6.456;2022-12-16T11:54:07;90.00;;;47.43;;
51764;SDS011;37835;53.256;6.456;2022-12-16T12:00:32;87.50;;;49.87;;
51764;SDS011;37835;53.256;6.456;2022-12-16T12:03:21;80.63;;;46.07;;
51764;SDS011;37835;53.256;6.456;2022-12-16T12:09:17;83.03;;;47.00;;
51764;SDS011;37835;53.256;6.456;2022-12-16T12:15:41;89.10;;;47.50;;
51764;SDS011;37835;53.256;6.456;2022-12-16T12:21:23;85.63;;;47.77;;
51764;SDS011;37835;53.256;6.456;2022-12-16T12:24:14;86.47;;;47.77;;
51764;SDS011;37835;53.256;6.456;2022-12-16T12:27:34;87.90;;;48.95;;
51764;SDS011;37835;53.256;6.456;2022-12-16T12:30:52;87.00;;;47.83;;
51764;SDS011;37835;53.256;6.456;2022-12-16T12:33:52;87.80;;;47.87;;
51764;SDS011;37835;53.256;6.456;2022-12-16T12:36:49;94.23;;;48.73;;
51764;SDS011;37835;53.256;6.456;2022-12-16T12:39:45;99.40;;;52.17;;
51764;SDS011;37835;53.256;6.456;2022-12-16T12:42:36;96.30;;;51.07;;
51764;SDS011;37835;53.256;6.456;2022-12-16T12:48:48;89.90;;;49.60;;
51764;SDS011;37835;53.256;6.456;2022-12-16T12:55:09;87.93;;;49.87;;
51764;SDS011;37835;53.256;6.456;2022-12-16T12:58:23;91.40;;;47.97;;
51764;SDS011;37835;53.256;6.456;2022-12-16T13:01:09;94.80;;;49.90;;
51764;SDS011;37835;53.256;6.456;2022-12-16T13:03:56;87.17;;;48.43;;
51764;SDS011;37835;53.256;6.456;2022-12-16T13:06:46;90.17;;;49.37;;
51764;SDS011;37835;53.256;6.456;2022-12-16T13:15:06;91.63;;;49.57;;
51764;SDS011;37835;53.256;6.456;2022-12-16T13:20:46;88.60;;;49.27;;
51764;SDS011;37835;53.256;6.456;2022-12-16T13:23:34;95.53;;;51.00;;
51764;SDS011;37835;53.256;6.456;2022-12-16T13:26:20;94.13;;;52.00;;
51764;SDS011;37835;53.256;6.456;2022-12-16T13:32:15;93.30;;;50.83;;
51764;SDS011;37835;53.256;6.456;2022-12-16T13:35:13;89.93;;;48.60;;
51764;SDS011;37835;53.256;6.456;2022-12-16T13:38:18;95.60;;;48.97;;
51764;SDS011;37835;53.256;6.456;2022-12-16T13:41:04;92.10;;;49.90;;
51764;SDS011;37835;53.256;6.456;2022-12-16T13:44:09;95.87;;;51.47;;
51764;SDS011;37835;53.256;6.456;2022-12-16T13:46:54;91.40;;;49.70;;
51764;SDS011;37835;53.256;6.456;2022-12-16T13:52:26;96.63;;;53.70;;
51764;SDS011;37835;53.256;6.456;2022-12-16T13:55:28;93.07;;;50.57;;
51764;SDS011;37835;53.256;6.456;2022-12-16T13:58:49;94.87;;;49.30;;
51764;SDS011;37835;53.256;6.456;2022-12-16T14:04:37;87.37;;;47.53;;
51764;SDS011;37835;53.256;6.456;2022-12-16T14:07:25;87.60;;;47.20;;
51764;SDS011;37835;53.256;6.456;2022-12-16T14:10:22;92.00;;;49.47;;
51764;SDS011;37835;53.256;6.456;2022-12-16T14:13:20;90.03;;;47.53;;
51764;SDS011;37835;53.256;6.456;2022-12-16T14:16:32;94.67;;;49.10;;
51764;SDS011;37835;53.256;6.456;2022-12-16T14:22:54;82.43;;;45.17;;
51764;SDS011;37835;53.256;6.456;2022-12-16T14:25:54;87.93;;;47.87;;
51764;SDS011;37835;53.256;6.456;2022-12-16T14:28:39;89.87;;;47.77;;
51764;SDS011;37835;53.256;6.456;2022-12-16T14:34:11;94.20;;;50.63;;
51764;SDS011;37835;53.256;6.456;2022-12-16T14:37:06;93.13;;;49.40;;
51764;SDS011;37835;53.256;6.456;2022-12-16T14:40:00;100.93;;;53.27;;
51764;SDS011;37835;53.256;6.456;2022-12-16T14:42:44;102.53;;;52.93;;
51764;SDS011;37835;53.256;6.456;2022-12-16T14:45:32;100.80;;;54.03;;
51764;SDS011;37835;53.256;6.456;2022-12-16T14:51:27;93.47;;;50.23;;
51764;SDS011;37835;53.256;6.456;2022-12-16T14:54:26;90.87;;;50.10;;
51764;SDS011;37835;53.256;6.456;2022-12-16T15:00:09;87.67;;;45.23;;
51764;SDS011;37835;53.256;6.456;2022-12-16T15:05:46;86.27;;;44.90;;
51764;SDS011;37835;53.256;6.456;2022-12-16T15:08:32;90.20;;;47.00;;
51764;SDS011;37835;53.256;6.456;2022-12-16T15:11:19;83.80;;;45.70;;
51764;SDS011;37835;53.256;6.456;2022-12-16T15:14:06;92.30;;;47.27;;
51764;SDS011;37835;53.256;6.456;2022-12-16T15:16:54;91.43;;;47.63;;
51764;SDS011;37835;53.256;6.456;2022-12-16T15:19:41;95.63;;;49.33;;
51764;SDS011;37835;53.256;6.456;2022-12-16T15:25:23;89.50;;;46.97;;
51764;SDS011;37835;53.256;6.456;2022-12-16T15:31:32;106.13;;;53.60;;
51764;SDS011;37835;53.256;6.456;2022-12-16T15:37:03;90.60;;;47.63;;
51764;SDS011;37835;53.256;6.456;2022-12-16T15:39:56;98.83;;;50.50;;
51764;SDS011;37835;53.256;6.456;2022-12-16T15:42:41;97.63;;;50.13;;
51764;SDS011;37835;53.256;6.456;2022-12-16T15:45:49;97.90;;;50.90;;
51764;SDS011;37835;53.256;6.456;2022-12-16T15:48:47;94.88;;;50.38;;
51764;SDS011;37835;53.256;6.456;2022-12-16T15:51:42;102.23;;;51.77;;
51764;SDS011;37835;53.256;6.456;2022-12-16T15:54:29;97.93;;;50.23;;
51764;SDS011;37835;53.256;6.456;2022-12-16T15:57:23;100.97;;;51.90;;
51764;SDS011;37835;53.256;6.456;2022-12-16T16:00:22;102.50;;;52.13;;
51764;SDS011;37835;53.256;6.456;2022-12-16T16:03:29;112.03;;;54.50;;
51764;SDS011;37835;53.256;6.456;2022-12-16T16:06:15;108.30;;;52.60;;
51764;SDS011;37835;53.256;6.456;2022-12-16T16:09:10;106.47;;;52.67;;
51764;SDS011;37835;53.256;6.456;2022-12-16T16:12:04;102.40;;;53.30;;
51764;SDS011;37835;53.256;6.456;2022-12-16T16:14:48;99.93;;;52.00;;
51764;SDS011;37835;53.256;6.456;2022-12-16T16:17:32;106.23;;;53.63;;
51764;SDS011;37835;53.256;6.456;2022-12-16T16:20:17;102.73;;;51.33;;
51764;SDS011;37835;53.256;6.456;2022-12-16T16:23:01;103.97;;;51.10;;
51764;SDS011;37835;53.256;6.456;2022-12-16T16:25:46;105.80;;;52.60;;
51764;SDS011;37835;53.256;6.456;2022-12-16T16:28:31;101.37;;;53.00;;
51764;SDS011;37835;53.256;6.456;2022-12-16T16:31:16;106.10;;;53.67;;
51764;SDS011;37835;53.256;6.456;2022-12-16T16:34:01;103.30;;;52.03;;
51764;SDS011;37835;53.256;6.456;2022-12-16T16:36:46;103.23;;;52.40;;
51764;SDS011;37835;53.256;6.456;2022-12-16T16:39:34;108.57;;;53.47;;
51764;SDS011;37835;53.256;6.456;2022-12-16T16:42:18;98.60;;;53.20;;
51764;SDS011;37835;53.256;6.456;2022-12-16T16:45:03;106.60;;;52.90;;
51764;SDS011;37835;53.256;6.456;2022-12-16T16:47:47;104.53;;;51.90;;
51764;SDS011;37835;53.256;6.456;2022-12-16T16:50:31;100.30;;;51.03;;
51764;SDS011;37835;53.256;6.456;2022-12-16T16:53:16;96.70;;;52.20;;
51764;SDS011;37835;53.256;6.456;2022-12-16T16:56:01;102.70;;;51.13;;
51764;SDS011;37835;53.256;6.456;2022-12-16T16:58:46;100.90;;;50.63;;
51764;SDS011;37835;53.256;6.456;2022-12-16T17:01:31;104.73;;;51.17;;
51764;SDS011;37835;53.256;6.456;2022-12-16T17:04:15;97.90;;;50.40;;
51764;SDS011;37835;53.256;6.456;2022-12-16T17:06:59;99.87;;;51.77;;
51764;SDS011;37835;53.256;6.456;2022-12-16T17:09:44;96.77;;;50.57;;
51764;SDS011;37835;53.256;6.456;2022-12-16T17:12:29;92.87;;;49.53;;
51764;SDS011;37835;53.256;6.456;2022-12-16T17:15:17;95.70;;;50.20;;
51764;SDS011;37835;53.256;6.456;2022-12-16T17:20:51;100.53;;;51.27;;
51764;SDS011;37835;53.256;6.456;2022-12-16T17:23:40;100.10;;;50.20;;
51764;SDS011;37835;53.256;6.456;2022-12-16T17:26:25;99.97;;;50.30;;
51764;SDS011;37835;53.256;6.456;2022-12-16T17:29:22;104.77;;;51.73;;
51764;SDS011;37835;53.256;6.456;2022-12-16T17:32:07;105.47;;;51.00;;
51764;SDS011;37835;53.256;6.456;2022-12-16T17:34:52;97.90;;;47.70;;
51764;SDS011;37835;53.256;6.456;2022-12-16T17:37:37;101.20;;;51.13;;
51764;SDS011;37835;53.256;6.456;2022-12-16T17:40:21;101.47;;;50.00;;
51764;SDS011;37835;53.256;6.456;2022-12-16T17:43:05;101.00;;;51.40;;
51764;SDS011;37835;53.256;6.456;2022-12-16T17:46:03;132.67;;;67.60;;
51764;SDS011;37835;53.256;6.456;2022-12-16T17:48:52;140.00;;;75.00;;
51764;SDS011;37835;53.256;6.456;2022-12-16T17:51:38;125.50;;;65.63;;
51764;SDS011;37835;53.256;6.456;2022-12-16T17:54:22;119.67;;;59.83;;
51764;SDS011;37835;53.256;6.456;2022-12-16T17:57:06;107.50;;;54.50;;
51764;SDS011;37835;53.256;6.456;2022-12-16T17:59:51;119.00;;;62.20;;
51764;SDS011;37835;53.256;6.456;2022-12-16T18:02:35;104.53;;;50.37;;
51764;SDS011;37835;53.256;6.456;2022-12-16T18:05:19;112.57;;;55.73;;